createdAt,value
2019-04-11T19:11:28.381Z,98880.77
2019-04-11T19:13:54.614Z,98878.18
2019-04-11T19:16:20.774Z,98881.90
2019-04-11T19:18:47.693Z,98886.34
2019-04-11T19:21:14.812Z,98885.48
2019-04-11T19:23:41.096Z,98887.16
2019-04-11T19:26:07.313Z,98887.22
2019-04-11T19:28:33.500Z,98893.97
2019-04-11T19:30:59.673Z,98883.59
2019-04-11T19:33:25.884Z,98888.02
2019-04-11T19:35:52.062Z,98889.75
2019-04-11T19:41:11.394Z,98887.83
2019-04-11T19:58:01.413Z,98898.48
2019-04-11T20:00:27.601Z,98895.77
2019-04-11T20:02:54.162Z,98891.06
2019-04-11T20:05:20.996Z,98898.53
2019-04-11T20:07:47.179Z,98897.80
2019-04-11T20:17:43.705Z,98892.12
2019-04-11T20:20:06.823Z,98899.61
2019-04-11T20:22:32.210Z,98897.07
2019-04-11T20:28:40.285Z,98898.70
2019-04-11T20:31:08.402Z,98902.50
2019-04-11T20:33:40.592Z,98898.59
2019-04-11T20:36:08.188Z,98903.47
2019-04-11T20:38:35.053Z,98899.86
2019-04-11T20:41:01.367Z,98906.44
2019-04-11T20:43:30.725Z,98904.35
2019-04-11T20:45:58.562Z,98903.66
2019-04-11T20:48:25.004Z,98905.42
2019-04-11T20:50:51.220Z,98902.21
2019-04-11T20:53:17.401Z,98896.58
2019-04-11T20:55:43.564Z,98897.98
2019-04-11T20:58:11.686Z,98901.23
2019-04-11T21:00:49.481Z,98905.31
2019-04-11T21:03:06.370Z,98908.92
2019-04-11T21:05:32.578Z,98905.03
2019-04-11T21:08:02.944Z,98900.22
2019-04-11T21:10:31.957Z,98903.76
2019-04-11T21:12:58.079Z,98903.69
2019-04-11T21:15:24.248Z,98902.28
2019-04-11T21:17:53.587Z,98899.30
2019-04-11T21:20:23.745Z,98897.38
2019-04-11T21:22:49.324Z,98891.02
2019-04-11T21:25:15.502Z,98897.67
2019-04-11T21:27:41.727Z,98899.84
2019-04-11T21:30:08.607Z,98898.05
2019-04-11T21:32:34.769Z,98900.70
2019-04-11T21:35:02.367Z,98908.52
2019-04-11T21:37:30.156Z,98911.06
2019-04-11T21:39:57.035Z,98906.38
2019-04-11T21:42:23.329Z,98903.02
2019-04-11T21:44:49.628Z,98904.57
2019-04-11T21:47:15.777Z,98906.19
2019-04-11T21:49:41.966Z,98910.69
2019-04-11T21:52:12.077Z,98906.86
2019-04-11T21:54:36.216Z,98911.02
2019-04-11T21:57:02.514Z,98911.00
2019-04-11T21:59:28.704Z,98905.61
2019-04-11T22:01:54.888Z,98903.54
2019-04-11T22:04:21.091Z,98908.38
2019-04-11T22:06:47.241Z,98896.19
2019-04-11T22:09:13.633Z,98902.32
2019-04-11T22:11:39.843Z,98898.88
2019-04-11T22:14:05.999Z,98904.97
2019-04-11T22:16:32.172Z,98905.00
2019-04-11T22:18:58.422Z,98914.06
2019-04-11T22:21:24.620Z,98915.75
2019-04-11T22:23:50.805Z,98912.24
2019-04-11T22:26:16.995Z,98915.02
2019-04-11T22:28:43.178Z,98918.15
2019-04-11T22:31:09.368Z,98918.59
2019-04-11T22:33:37.475Z,98919.89
2019-04-11T22:36:03.764Z,98923.30
2019-04-11T22:38:31.075Z,98934.69
2019-04-11T22:41:01.761Z,98941.86
2019-04-11T22:43:26.010Z,98930.46
2019-04-11T22:45:52.279Z,98942.51
2019-04-11T22:48:18.484Z,98937.09
2019-04-11T22:50:44.677Z,98945.15
2019-04-11T22:53:13.051Z,98938.23
2019-04-11T22:55:41.286Z,98939.76
2019-04-11T22:58:07.155Z,98939.53
2019-04-11T23:00:33.336Z,98939.92
2019-04-11T23:03:19.243Z,98939.79
2019-04-11T23:05:46.918Z,98932.55
2019-04-11T23:08:13.668Z,98931.52
2019-04-11T23:10:39.886Z,98931.51
2019-04-11T23:13:06.073Z,98940.54
2019-04-11T23:15:32.254Z,98940.97
2019-04-11T23:17:58.471Z,98939.06
2019-04-11T23:20:24.747Z,98935.27
2019-04-11T23:22:50.928Z,98928.19
2019-04-11T23:25:17.143Z,98937.58
2019-04-11T23:27:43.419Z,98927.08
2019-04-11T23:30:11.012Z,98933.02
2019-04-11T23:32:37.231Z,98932.41
2019-04-11T23:35:04.115Z,98937.61
2019-04-11T23:37:32.177Z,98929.08
2019-04-11T23:39:58.387Z,98930.67
2019-04-11T23:42:24.674Z,98939.22
2019-04-11T23:44:51.258Z,98933.34
2019-04-11T23:47:17.545Z,98939.43
2019-04-11T23:49:43.730Z,98936.20
2019-04-11T23:52:09.908Z,98936.70
2019-04-11T23:54:36.217Z,98936.80
2019-04-11T23:57:02.377Z,98946.96
2019-04-11T23:59:32.076Z,98951.60
